Terminal Aerodrome Forecast
Issued by NWS Austin/San Antonio, TX

Home | Current Version | Previous Version | Text Only | Print | Product List | Glossary On
Versions: 1 2 3 4 5 6 7 8 9 10 11 12 13 14 15 16 17 18 19 20 21 22 23 24 25 26
873
FTUS44 KEWX 271127
TAFSAT
TAF
KSAT 271127Z 2712/2818 00000KT P6SM FEW012
     FM271500 18010KT P6SM FEW035
     FM272200 14014KT P6SM SCT060
     FM280800 19006KT P6SM SCT011
     FM281600 17010KT P6SM FEW035=

USA.gov is the U.S. government's official web portal to all federal, state and local government web resources and services.